sensor_id;sensor_type;location;lat;lon;timestamp;temperature;humidity
12166;DHT22;6146;48.128;11.476;2023-07-02T00:01:47;17.10;99.90
12166;DHT22;6146;48.128;11.476;2023-07-02T00:04:13;17.10;99.90
12166;DHT22;6146;48.128;11.476;2023-07-02T00:06:45;17.10;99.90
12166;DHT22;6146;48.128;11.476;2023-07-02T00:09:11;17.20;99.90
12166;DHT22;6146;48.128;11.476;2023-07-02T00:11:42;17.20;99.90
12166;DHT22;6146;48.128;11.476;2023-07-02T00:14:08;17.20;99.90
12166;DHT22;6146;48.128;11.476;2023-07-02T00:16:37;17.20;99.90
12166;DHT22;6146;48.128;11.476;2023-07-02T00:19:03;17.20;99.90
12166;DHT22;6146;48.128;11.476;2023-07-02T00:21:29;17.20;99.90
12166;DHT22;6146;48.128;11.476;2023-07-02T00:23:55;17.20;99.90
12166;DHT22;6146;48.128;11.476;2023-07-02T00:26:27;17.20;99.90
12166;DHT22;6146;48.128;11.476;2023-07-02T00:28:54;17.30;99.90
12166;DHT22;6146;48.128;11.476;2023-07-02T00:31:20;17.30;99.90
12166;DHT22;6146;48.128;11.476;2023-07-02T00:33:46;17.40;99.90
12166;DHT22;6146;48.128;11.476;2023-07-02T00:36:13;17.40;99.90
12166;DHT22;6146;48.128;11.476;2023-07-02T00:38:41;17.50;99.90
12166;DHT22;6146;48.128;11.476;2023-07-02T00:41:08;17.40;99.90
12166;DHT22;6146;48.128;11.476;2023-07-02T00:43:33;17.40;99.90
12166;DHT22;6146;48.128;11.476;2023-07-02T00:45:59;17.40;99.90
12166;DHT22;6146;48.128;11.476;2023-07-02T00:48:25;17.40;99.90
12166;DHT22;6146;48.128;11.476;2023-07-02T00:50:51;17.30;99.90
12166;DHT22;6146;48.128;11.476;2023-07-02T00:53:16;17.40;99.90
12166;DHT22;6146;48.128;11.476;2023-07-02T00:55:42;17.20;99.90
12166;DHT22;6146;48.128;11.476;2023-07-02T00:58:08;17.20;99.90
12166;DHT22;6146;48.128;11.476;2023-07-02T01:00:35;17.20;99.90
12166;DHT22;6146;48.128;11.476;2023-07-02T01:03:01;17.20;99.90
12166;DHT22;6146;48.128;11.476;2023-07-02T01:05:27;17.20;99.90
12166;DHT22;6146;48.128;11.476;2023-07-02T01:07:57;17.20;99.90
12166;DHT22;6146;48.128;11.476;2023-07-02T01:10:23;17.20;99.90
12166;DHT22;6146;48.128;11.476;2023-07-02T01:12:49;17.10;99.90
12166;DHT22;6146;48.128;11.476;2023-07-02T01:15:14;17.10;99.90
12166;DHT22;6146;48.128;11.476;2023-07-02T01:17:40;17.10;99.90
12166;DHT22;6146;48.128;11.476;2023-07-02T01:20:08;17.10;99.90
12166;DHT22;6146;48.128;11.476;2023-07-02T01:22:34;17.10;99.90
12166;DHT22;6146;48.128;11.476;2023-07-02T01:25:00;17.10;99.90
12166;DHT22;6146;48.128;11.476;2023-07-02T01:27:29;17.20;99.90
12166;DHT22;6146;48.128;11.476;2023-07-02T01:29:56;17.20;99.90
12166;DHT22;6146;48.128;11.476;2023-07-02T01:32:22;17.00;99.90
12166;DHT22;6146;48.128;11.476;2023-07-02T01:34:48;17.00;99.90
12166;DHT22;6146;48.128;11.476;2023-07-02T01:37:16;16.90;99.90
12166;DHT22;6146;48.128;11.476;2023-07-02T01:39:43;16.90;99.90
12166;DHT22;6146;48.128;11.476;2023-07-02T01:42:10;17.00;99.90
12166;DHT22;6146;48.128;11.476;2023-07-02T01:44:36;17.00;99.90
12166;DHT22;6146;48.128;11.476;2023-07-02T01:47:02;17.00;99.90
12166;DHT22;6146;48.128;11.476;2023-07-02T01:49:28;16.90;99.90
12166;DHT22;6146;48.128;11.476;2023-07-02T01:51:55;17.00;99.90
12166;DHT22;6146;48.128;11.476;2023-07-02T01:54:22;17.00;99.90
12166;DHT22;6146;48.128;11.476;2023-07-02T01:56:48;17.00;99.90
12166;DHT22;6146;48.128;11.476;2023-07-02T01:59:14;16.90;99.90
12166;DHT22;6146;48.128;11.476;2023-07-02T02:01:40;16.90;99.90
12166;DHT22;6146;48.128;11.476;2023-07-02T02:04:06;16.80;99.90
12166;DHT22;6146;48.128;11.476;2023-07-02T02:06:32;16.80;99.90
12166;DHT22;6146;48.128;11.476;2023-07-02T02:08:58;16.70;99.90
12166;DHT22;6146;48.128;11.476;2023-07-02T02:11:24;16.60;99.90
12166;DHT22;6146;48.128;11.476;2023-07-02T02:13:50;16.50;99.90
12166;DHT22;6146;48.128;11.476;2023-07-02T02:16:15;16.50;99.90
12166;DHT22;6146;48.128;11.476;2023-07-02T02:18:41;16.50;99.90
12166;DHT22;6146;48.128;11.476;2023-07-02T02:21:07;16.40;99.90
12166;DHT22;6146;48.128;11.476;2023-07-02T02:23:32;16.50;99.90
12166;DHT22;6146;48.128;11.476;2023-07-02T02:25:58;16.50;99.90
12166;DHT22;6146;48.128;11.476;2023-07-02T02:28:23;16.50;99.90
12166;DHT22;6146;48.128;11.476;2023-07-02T02:30:49;16.50;99.90
12166;DHT22;6146;48.128;11.476;2023-07-02T02:33:15;16.60;99.90
12166;DHT22;6146;48.128;11.476;2023-07-02T02:35:40;16.60;99.90
12166;DHT22;6146;48.128;11.476;2023-07-02T02:38:06;16.60;99.90
12166;DHT22;6146;48.128;11.476;2023-07-02T02:40:31;16.70;99.90
12166;DHT22;6146;48.128;11.476;2023-07-02T02:42:57;16.70;99.90
12166;DHT22;6146;48.128;11.476;2023-07-02T02:45:22;16.70;99.90
12166;DHT22;6146;48.128;11.476;2023-07-02T02:47:48;16.80;99.90
12166;DHT22;6146;48.128;11.476;2023-07-02T02:50:14;16.80;99.90
12166;DHT22;6146;48.128;11.476;2023-07-02T02:52:39;16.90;99.90
12166;DHT22;6146;48.128;11.476;2023-07-02T02:55:06;16.90;99.90
12166;DHT22;6146;48.128;11.476;2023-07-02T02:57:33;16.90;99.90
12166;DHT22;6146;48.128;11.476;2023-07-02T02:59:59;17.00;99.90
12166;DHT22;6146;48.128;11.476;2023-07-02T03:02:24;17.00;99.90
12166;DHT22;6146;48.128;11.476;2023-07-02T03:04:50;16.90;99.90
12166;DHT22;6146;48.128;11.476;2023-07-02T03:07:16;17.00;99.90
12166;DHT22;6146;48.128;11.476;2023-07-02T03:09:42;17.00;99.90
12166;DHT22;6146;48.128;11.476;2023-07-02T03:12:07;17.00;99.90
12166;DHT22;6146;48.128;11.476;2023-07-02T03:14:33;17.00;99.90
12166;DHT22;6146;48.128;11.476;2023-07-02T03:16:59;17.00;99.90
12166;DHT22;6146;48.128;11.476;2023-07-02T03:19:25;17.10;99.90
12166;DHT22;6146;48.128;11.476;2023-07-02T03:21:50;17.00;99.90
12166;DHT22;6146;48.128;11.476;2023-07-02T03:24:17;16.60;99.90
12166;DHT22;6146;48.128;11.476;2023-07-02T03:26:43;16.20;99.90
12166;DHT22;6146;48.128;11.476;2023-07-02T03:29:09;15.80;99.90
12166;DHT22;6146;48.128;11.476;2023-07-02T03:31:35;15.50;99.90
12166;DHT22;6146;48.128;11.476;2023-07-02T03:34:06;15.40;99.90
12166;DHT22;6146;48.128;11.476;2023-07-02T03:36:32;15.20;99.90
12166;DHT22;6146;48.128;11.476;2023-07-02T03:38:58;15.20;99.90
12166;DHT22;6146;48.128;11.476;2023-07-02T03:41:24;15.10;99.90
12166;DHT22;6146;48.128;11.476;2023-07-02T03:43:49;15.10;99.90
12166;DHT22;6146;48.128;11.476;2023-07-02T03:46:15;15.00;99.90
12166;DHT22;6146;48.128;11.476;2023-07-02T03:48:40;15.00;99.90
12166;DHT22;6146;48.128;11.476;2023-07-02T03:51:06;14.90;99.90
12166;DHT22;6146;48.128;11.476;2023-07-02T03:53:32;14.90;99.90
12166;DHT22;6146;48.128;11.476;2023-07-02T03:55:57;14.80;99.90
12166;DHT22;6146;48.128;11.476;2023-07-02T03:58:23;14.70;99.90
12166;DHT22;6146;48.128;11.476;2023-07-02T04:00:48;14.70;99.90
12166;DHT22;6146;48.128;11.476;2023-07-02T04:03:17;14.70;99.90
12166;DHT22;6146;48.128;11.476;2023-07-02T04:05:43;14.70;99.90
12166;DHT22;6146;48.128;11.476;2023-07-02T04:08:09;14.70;99.90
12166;DHT22;6146;48.128;11.476;2023-07-02T04:10:35;14.70;99.90
12166;DHT22;6146;48.128;11.476;2023-07-02T04:13:01;14.70;99.90
12166;DHT22;6146;48.128;11.476;2023-07-02T04:15:26;14.70;99.90
12166;DHT22;6146;48.128;11.476;2023-07-02T04:17:52;14.70;99.90
12166;DHT22;6146;48.128;11.476;2023-07-02T04:20:18;14.70;99.90
12166;DHT22;6146;48.128;11.476;2023-07-02T04:22:47;14.70;99.90
12166;DHT22;6146;48.128;11.476;2023-07-02T04:25:15;14.80;99.90
12166;DHT22;6146;48.128;11.476;2023-07-02T04:27:41;14.70;99.90
12166;DHT22;6146;48.128;11.476;2023-07-02T04:30:08;14.70;99.90
12166;DHT22;6146;48.128;11.476;2023-07-02T04:32:35;14.70;99.90
12166;DHT22;6146;48.128;11.476;2023-07-02T04:35:01;14.60;99.90
12166;DHT22;6146;48.128;11.476;2023-07-02T04:37:27;14.70;99.90
12166;DHT22;6146;48.128;11.476;2023-07-02T04:39:55;14.70;99.90
12166;DHT22;6146;48.128;11.476;2023-07-02T04:42:21;14.70;99.90
12166;DHT22;6146;48.128;11.476;2023-07-02T04:44:46;14.80;99.90
12166;DHT22;6146;48.128;11.476;2023-07-02T04:47:12;14.90;99.90
12166;DHT22;6146;48.128;11.476;2023-07-02T04:49:38;14.90;99.90
12166;DHT22;6146;48.128;11.476;2023-07-02T04:52:04;14.90;99.90
12166;DHT22;6146;48.128;11.476;2023-07-02T04:54:31;15.00;99.90
12166;DHT22;6146;48.128;11.476;2023-07-02T04:56:56;15.00;99.90
12166;DHT22;6146;48.128;11.476;2023-07-02T04:59:24;15.00;99.90
12166;DHT22;6146;48.128;11.476;2023-07-02T05:01:50;15.00;99.90
12166;DHT22;6146;48.128;11.476;2023-07-02T05:04:15;15.00;99.90
12166;DHT22;6146;48.128;11.476;2023-07-02T05:06:41;15.10;99.90
12166;DHT22;6146;48.128;11.476;2023-07-02T05:09:06;15.10;99.90
12166;DHT22;6146;48.128;11.476;2023-07-02T05:11:32;15.20;99.90
12166;DHT22;6146;48.128;11.476;2023-07-02T05:13:57;15.20;99.90
12166;DHT22;6146;48.128;11.476;2023-07-02T05:16:23;15.30;99.90
12166;DHT22;6146;48.128;11.476;2023-07-02T05:18:48;15.30;99.90
12166;DHT22;6146;48.128;11.476;2023-07-02T05:21:17;15.40;99.90
12166;DHT22;6146;48.128;11.476;2023-07-02T05:23:43;15.40;99.90
12166;DHT22;6146;48.128;11.476;2023-07-02T05:26:09;15.60;99.90
12166;DHT22;6146;48.128;11.476;2023-07-02T05:28:34;15.60;99.90
12166;DHT22;6146;48.128;11.476;2023-07-02T05:31:00;15.80;99.90
12166;DHT22;6146;48.128;11.476;2023-07-02T05:33:25;15.80;99.90
12166;DHT22;6146;48.128;11.476;2023-07-02T05:35:51;15.70;99.90
12166;DHT22;6146;48.128;11.476;2023-07-02T05:38:17;15.80;99.90
12166;DHT22;6146;48.128;11.476;2023-07-02T05:40:44;15.80;99.90
12166;DHT22;6146;48.128;11.476;2023-07-02T05:43:09;15.90;99.90
12166;DHT22;6146;48.128;11.476;2023-07-02T05:45:35;16.00;99.90
12166;DHT22;6146;48.128;11.476;2023-07-02T05:48:00;16.10;99.90
12166;DHT22;6146;48.128;11.476;2023-07-02T05:50:26;16.20;99.90
12166;DHT22;6146;48.128;11.476;2023-07-02T05:52:52;16.20;99.90
12166;DHT22;6146;48.128;11.476;2023-07-02T05:55:17;16.20;99.90
12166;DHT22;6146;48.128;11.476;2023-07-02T05:57:43;16.30;99.90
12166;DHT22;6146;48.128;11.476;2023-07-02T06:00:09;16.20;99.90
12166;DHT22;6146;48.128;11.476;2023-07-02T06:02:34;16.30;99.90
12166;DHT22;6146;48.128;11.476;2023-07-02T06:05:00;16.30;99.90
12166;DHT22;6146;48.128;11.476;2023-07-02T06:07:27;16.30;99.90
12166;DHT22;6146;48.128;11.476;2023-07-02T06:09:52;16.30;99.90
12166;DHT22;6146;48.128;11.476;2023-07-02T06:12:18;16.30;99.90
12166;DHT22;6146;48.128;11.476;2023-07-02T06:14:44;16.30;99.90
12166;DHT22;6146;48.128;11.476;2023-07-02T06:17:09;16.20;99.90
12166;DHT22;6146;48.128;11.476;2023-07-02T06:19:37;16.10;99.90
12166;DHT22;6146;48.128;11.476;2023-07-02T06:22:03;16.20;99.90
12166;DHT22;6146;48.128;11.476;2023-07-02T06:24:28;16.10;99.90
12166;DHT22;6146;48.128;11.476;2023-07-02T06:26:54;16.00;99.90
12166;DHT22;6146;48.128;11.476;2023-07-02T06:29:21;16.00;99.90
12166;DHT22;6146;48.128;11.476;2023-07-02T06:31:46;15.90;99.90
12166;DHT22;6146;48.128;11.476;2023-07-02T06:34:12;15.90;99.90
12166;DHT22;6146;48.128;11.476;2023-07-02T06:36:37;15.90;99.90
12166;DHT22;6146;48.128;11.476;2023-07-02T06:39:03;15.90;99.90
12166;DHT22;6146;48.128;11.476;2023-07-02T06:41:28;16.00;99.90
12166;DHT22;6146;48.128;11.476;2023-07-02T06:43:54;16.00;99.90
12166;DHT22;6146;48.128;11.476;2023-07-02T06:46:19;16.00;99.90
12166;DHT22;6146;48.128;11.476;2023-07-02T06:48:45;16.10;99.90
12166;DHT22;6146;48.128;11.476;2023-07-02T06:51:11;16.20;99.90
12166;DHT22;6146;48.128;11.476;2023-07-02T06:53:44;16.30;99.90
12166;DHT22;6146;48.128;11.476;2023-07-02T06:56:09;16.30;99.90
12166;DHT22;6146;48.128;11.476;2023-07-02T06:58:35;16.40;99.90
12166;DHT22;6146;48.128;11.476;2023-07-02T07:01:01;16.40;99.90
12166;DHT22;6146;48.128;11.476;2023-07-02T07:03:27;16.30;99.90
12166;DHT22;6146;48.128;11.476;2023-07-02T07:05:53;16.30;99.90
12166;DHT22;6146;48.128;11.476;2023-07-02T07:08:18;16.30;99.90
12166;DHT22;6146;48.128;11.476;2023-07-02T07:10:44;16.30;99.90
12166;DHT22;6146;48.128;11.476;2023-07-02T07:13:11;16.30;99.90
12166;DHT22;6146;48.128;11.476;2023-07-02T07:15:36;16.30;99.90
12166;DHT22;6146;48.128;11.476;2023-07-02T07:18:03;16.20;99.90
12166;DHT22;6146;48.128;11.476;2023-07-02T07:20:29;16.20;99.90
12166;DHT22;6146;48.128;11.476;2023-07-02T07:22:55;16.20;99.90
12166;DHT22;6146;48.128;11.476;2023-07-02T07:25:20;16.10;99.90
12166;DHT22;6146;48.128;11.476;2023-07-02T07:27:46;16.00;99.90
12166;DHT22;6146;48.128;11.476;2023-07-02T07:30:12;16.10;99.90
12166;DHT22;6146;48.128;11.476;2023-07-02T07:32:38;16.20;99.90
12166;DHT22;6146;48.128;11.476;2023-07-02T07:35:04;16.20;99.90
12166;DHT22;6146;48.128;11.476;2023-07-02T07:37:29;16.20;99.90
12166;DHT22;6146;48.128;11.476;2023-07-02T07:39:55;16.30;99.90
12166;DHT22;6146;48.128;11.476;2023-07-02T07:42:20;16.50;99.90
12166;DHT22;6146;48.128;11.476;2023-07-02T07:44:46;16.70;99.90
12166;DHT22;6146;48.128;11.476;2023-07-02T07:47:12;16.80;99.90
12166;DHT22;6146;48.128;11.476;2023-07-02T07:49:37;16.80;99.90
12166;DHT22;6146;48.128;11.476;2023-07-02T07:52:03;16.60;99.90
12166;DHT22;6146;48.128;11.476;2023-07-02T07:54:32;16.60;99.90
12166;DHT22;6146;48.128;11.476;2023-07-02T07:56:58;16.70;99.90
12166;DHT22;6146;48.128;11.476;2023-07-02T07:59:23;16.80;99.90
12166;DHT22;6146;48.128;11.476;2023-07-02T08:01:49;17.00;99.90
12166;DHT22;6146;48.128;11.476;2023-07-02T08:04:14;17.30;99.90
12166;DHT22;6146;48.128;11.476;2023-07-02T08:06:40;17.60;99.90
12166;DHT22;6146;48.128;11.476;2023-07-02T08:09:05;18.00;99.90
12166;DHT22;6146;48.128;11.476;2023-07-02T08:11:31;18.40;99.90
12166;DHT22;6146;48.128;11.476;2023-07-02T08:13:56;18.70;99.90
12166;DHT22;6146;48.128;11.476;2023-07-02T08:16:22;18.90;99.90
12166;DHT22;6146;48.128;11.476;2023-07-02T08:18:47;19.00;99.90
12166;DHT22;6146;48.128;11.476;2023-07-02T08:21:13;18.90;99.90
12166;DHT22;6146;48.128;11.476;2023-07-02T08:23:38;19.00;99.90
12166;DHT22;6146;48.128;11.476;2023-07-02T08:26:04;18.90;99.90
12166;DHT22;6146;48.128;11.476;2023-07-02T08:28:29;18.80;99.90
12166;DHT22;6146;48.128;11.476;2023-07-02T08:30:55;18.60;99.90
12166;DHT22;6146;48.128;11.476;2023-07-02T08:33:20;18.40;99.90
12166;DHT22;6146;48.128;11.476;2023-07-02T08:35:46;18.30;99.90
12166;DHT22;6146;48.128;11.476;2023-07-02T08:38:12;18.40;99.90
12166;DHT22;6146;48.128;11.476;2023-07-02T08:40:37;18.40;99.90
12166;DHT22;6146;48.128;11.476;2023-07-02T08:43:03;18.30;99.90
12166;DHT22;6146;48.128;11.476;2023-07-02T08:45:29;18.20;99.90
12166;DHT22;6146;48.128;11.476;2023-07-02T08:47:55;18.10;99.90
12166;DHT22;6146;48.128;11.476;2023-07-02T08:50:22;18.00;99.90
12166;DHT22;6146;48.128;11.476;2023-07-02T08:52:48;17.90;99.90
12166;DHT22;6146;48.128;11.476;2023-07-02T08:55:14;17.70;99.90
12166;DHT22;6146;48.128;11.476;2023-07-02T08:57:41;17.60;99.90
12166;DHT22;6146;48.128;11.476;2023-07-02T09:00:14;17.70;99.90
12166;DHT22;6146;48.128;11.476;2023-07-02T09:02:40;17.50;99.90
12166;DHT22;6146;48.128;11.476;2023-07-02T09:05:06;17.50;99.90
12166;DHT22;6146;48.128;11.476;2023-07-02T09:07:32;17.50;99.90
12166;DHT22;6146;48.128;11.476;2023-07-02T09:10:08;17.50;99.90
12166;DHT22;6146;48.128;11.476;2023-07-02T09:12:34;17.40;99.90
12166;DHT22;6146;48.128;11.476;2023-07-02T09:15:05;17.40;99.90
12166;DHT22;6146;48.128;11.476;2023-07-02T09:17:33;17.40;99.90
12166;DHT22;6146;48.128;11.476;2023-07-02T09:20:00;17.40;99.90
12166;DHT22;6146;48.128;11.476;2023-07-02T09:22:26;17.40;99.90
12166;DHT22;6146;48.128;11.476;2023-07-02T09:24:58;17.40;99.90
12166;DHT22;6146;48.128;11.476;2023-07-02T09:27:34;17.50;99.90
12166;DHT22;6146;48.128;11.476;2023-07-02T09:30:06;17.50;99.90
12166;DHT22;6146;48.128;11.476;2023-07-02T09:32:32;17.50;99.90
12166;DHT22;6146;48.128;11.476;2023-07-02T09:34:58;17.50;99.90
12166;DHT22;6146;48.128;11.476;2023-07-02T09:37:24;17.50;99.90
12166;DHT22;6146;48.128;11.476;2023-07-02T09:39:51;17.70;99.90
12166;DHT22;6146;48.128;11.476;2023-07-02T09:42:20;17.70;99.90
12166;DHT22;6146;48.128;11.476;2023-07-02T09:44:46;17.80;99.90
12166;DHT22;6146;48.128;11.476;2023-07-02T09:47:13;17.70;99.90
12166;DHT22;6146;48.128;11.476;2023-07-02T09:49:45;17.70;99.90
12166;DHT22;6146;48.128;11.476;2023-07-02T09:52:15;17.60;99.90
12166;DHT22;6146;48.128;11.476;2023-07-02T09:54:41;17.40;99.90
12166;DHT22;6146;48.128;11.476;2023-07-02T09:57:07;17.40;99.90
12166;DHT22;6146;48.128;11.476;2023-07-02T09:59:33;17.50;99.90
12166;DHT22;6146;48.128;11.476;2023-07-02T10:01:59;17.40;99.90
12166;DHT22;6146;48.128;11.476;2023-07-02T10:04:24;17.40;99.90
12166;DHT22;6146;48.128;11.476;2023-07-02T10:06:54;17.40;99.90
12166;DHT22;6146;48.128;11.476;2023-07-02T10:09:33;17.70;99.90
12166;DHT22;6146;48.128;11.476;2023-07-02T10:11:59;18.20;99.90
12166;DHT22;6146;48.128;11.476;2023-07-02T10:14:25;20.10;99.90
12166;DHT22;6146;48.128;11.476;2023-07-02T10:16:52;22.70;99.90
12166;DHT22;6146;48.128;11.476;2023-07-02T10:19:19;24.00;99.90
12166;DHT22;6146;48.128;11.476;2023-07-02T10:21:45;24.00;99.90
12166;DHT22;6146;48.128;11.476;2023-07-02T10:24:19;23.80;99.90
12166;DHT22;6146;48.128;11.476;2023-07-02T10:26:59;23.30;99.90
12166;DHT22;6146;48.128;11.476;2023-07-02T10:29:26;23.40;99.90
12166;DHT22;6146;48.128;11.476;2023-07-02T10:31:53;23.50;99.90
12166;DHT22;6146;48.128;11.476;2023-07-02T10:34:35;23.30;99.90
12166;DHT22;6146;48.128;11.476;2023-07-02T10:37:02;23.50;99.90
12166;DHT22;6146;48.128;11.476;2023-07-02T10:39:29;23.70;99.90
12166;DHT22;6146;48.128;11.476;2023-07-02T10:42:09;24.40;99.90
12166;DHT22;6146;48.128;11.476;2023-07-02T10:44:50;24.70;99.90
12166;DHT22;6146;48.128;11.476;2023-07-02T10:47:16;24.70;99.90
12166;DHT22;6146;48.128;11.476;2023-07-02T10:49:41;24.60;99.90
12166;DHT22;6146;48.128;11.476;2023-07-02T10:52:07;25.00;99.90
12166;DHT22;6146;48.128;11.476;2023-07-02T10:54:46;25.80;99.90
12166;DHT22;6146;48.128;11.476;2023-07-02T10:57:18;26.20;99.90
12166;DHT22;6146;48.128;11.476;2023-07-02T10:59:48;26.20;99.90
12166;DHT22;6146;48.128;11.476;2023-07-02T11:02:14;26.70;99.90
12166;DHT22;6146;48.128;11.476;2023-07-02T11:04:40;26.70;99.90
12166;DHT22;6146;48.128;11.476;2023-07-02T11:07:05;27.00;99.90
12166;DHT22;6146;48.128;11.476;2023-07-02T11:09:31;27.20;99.90
12166;DHT22;6146;48.128;11.476;2023-07-02T11:11:59;27.50;99.90
12166;DHT22;6146;48.128;11.476;2023-07-02T11:14:32;27.50;99.90
12166;DHT22;6146;48.128;11.476;2023-07-02T11:16:58;27.80;99.90
12166;DHT22;6146;48.128;11.476;2023-07-02T11:19:24;28.40;99.90
12166;DHT22;6146;48.128;11.476;2023-07-02T11:21:55;28.80;99.90
12166;DHT22;6146;48.128;11.476;2023-07-02T11:24:29;28.90;99.90
12166;DHT22;6146;48.128;11.476;2023-07-02T11:26:55;29.40;98.90
12166;DHT22;6146;48.128;11.476;2023-07-02T11:29:21;29.80;96.80
12166;DHT22;6146;48.128;11.476;2023-07-02T11:31:47;30.10;97.90
12166;DHT22;6146;48.128;11.476;2023-07-02T11:34:15;30.00;95.00
12166;DHT22;6146;48.128;11.476;2023-07-02T11:36:40;29.40;97.70
12166;DHT22;6146;48.128;11.476;2023-07-02T11:39:06;28.90;93.90
12166;DHT22;6146;48.128;11.476;2023-07-02T11:41:45;28.60;99.10
12166;DHT22;6146;48.128;11.476;2023-07-02T11:44:11;27.90;96.80
12166;DHT22;6146;48.128;11.476;2023-07-02T11:46:37;27.70;97.00
12166;DHT22;6146;48.128;11.476;2023-07-02T11:49:03;27.30;98.60
12166;DHT22;6146;48.128;11.476;2023-07-02T11:51:41;27.00;99.90
12166;DHT22;6146;48.128;11.476;2023-07-02T11:54:07;27.30;99.90
12166;DHT22;6146;48.128;11.476;2023-07-02T11:56:33;26.80;99.90
12166;DHT22;6146;48.128;11.476;2023-07-02T11:58:59;26.90;99.90
12166;DHT22;6146;48.128;11.476;2023-07-02T12:01:25;26.50;99.90
12166;DHT22;6146;48.128;11.476;2023-07-02T12:03:51;26.20;99.90
12166;DHT22;6146;48.128;11.476;2023-07-02T12:06:16;26.00;99.90
12166;DHT22;6146;48.128;11.476;2023-07-02T12:08:42;26.50;99.90
12166;DHT22;6146;48.128;11.476;2023-07-02T12:11:08;26.70;99.90
12166;DHT22;6146;48.128;11.476;2023-07-02T12:13:34;26.30;99.90
12166;DHT22;6146;48.128;11.476;2023-07-02T12:15:59;26.10;99.90
12166;DHT22;6146;48.128;11.476;2023-07-02T12:18:25;26.50;99.90
12166;DHT22;6146;48.128;11.476;2023-07-02T12:20:50;26.90;99.90
12166;DHT22;6146;48.128;11.476;2023-07-02T12:23:16;26.90;99.90
12166;DHT22;6146;48.128;11.476;2023-07-02T12:25:42;26.60;99.90
12166;DHT22;6146;48.128;11.476;2023-07-02T12:28:07;26.70;99.90
12166;DHT22;6146;48.128;11.476;2023-07-02T12:30:33;26.50;99.90
12166;DHT22;6146;48.128;11.476;2023-07-02T12:32:58;26.00;99.90
12166;DHT22;6146;48.128;11.476;2023-07-02T12:35:24;26.30;99.90
12166;DHT22;6146;48.128;11.476;2023-07-02T12:37:51;26.50;99.90
12166;DHT22;6146;48.128;11.476;2023-07-02T12:40:18;26.70;99.80
12166;DHT22;6146;48.128;11.476;2023-07-02T12:42:45;26.40;99.90
12166;DHT22;6146;48.128;11.476;2023-07-02T12:45:11;26.50;99.90
12166;DHT22;6146;48.128;11.476;2023-07-02T12:47:38;26.30;97.40
12166;DHT22;6146;48.128;11.476;2023-07-02T12:50:05;25.80;98.10
12166;DHT22;6146;48.128;11.476;2023-07-02T12:52:31;25.60;99.70
12166;DHT22;6146;48.128;11.476;2023-07-02T12:54:57;25.90;99.50
12166;DHT22;6146;48.128;11.476;2023-07-02T12:57:22;26.20;99.20
12166;DHT22;6146;48.128;11.476;2023-07-02T12:59:48;26.20;97.10
12166;DHT22;6146;48.128;11.476;2023-07-02T13:02:13;26.40;96.80
12166;DHT22;6146;48.128;11.476;2023-07-02T13:04:39;26.40;95.50
12166;DHT22;6146;48.128;11.476;2023-07-02T13:07:05;26.20;96.10
12166;DHT22;6146;48.128;11.476;2023-07-02T13:09:31;26.10;93.70
12166;DHT22;6146;48.128;11.476;2023-07-02T13:11:56;25.90;96.10
12166;DHT22;6146;48.128;11.476;2023-07-02T13:14:22;25.80;94.90
12166;DHT22;6146;48.128;11.476;2023-07-02T13:16:48;25.50;95.80
12166;DHT22;6146;48.128;11.476;2023-07-02T13:19:13;25.40;95.80
12166;DHT22;6146;48.128;11.476;2023-07-02T13:21:40;25.80;95.00
12166;DHT22;6146;48.128;11.476;2023-07-02T13:24:06;25.60;94.50
12166;DHT22;6146;48.128;11.476;2023-07-02T13:26:31;25.60;95.30
12166;DHT22;6146;48.128;11.476;2023-07-02T13:28:57;25.50;95.30
12166;DHT22;6146;48.128;11.476;2023-07-02T13:31:23;25.50;95.90
12166;DHT22;6146;48.128;11.476;2023-07-02T13:33:49;25.60;95.60
12166;DHT22;6146;48.128;11.476;2023-07-02T13:36:15;25.70;97.20
12166;DHT22;6146;48.128;11.476;2023-07-02T13:38:41;25.70;93.50
12166;DHT22;6146;48.128;11.476;2023-07-02T13:41:06;25.60;95.30
12166;DHT22;6146;48.128;11.476;2023-07-02T13:43:32;25.70;96.70
12166;DHT22;6146;48.128;11.476;2023-07-02T13:45:58;25.90;94.80
12166;DHT22;6146;48.128;11.476;2023-07-02T13:48:23;26.10;93.00
12166;DHT22;6146;48.128;11.476;2023-07-02T13:50:49;26.20;93.90
12166;DHT22;6146;48.128;11.476;2023-07-02T13:53:14;25.90;92.40
12166;DHT22;6146;48.128;11.476;2023-07-02T13:55:40;26.10;93.40
12166;DHT22;6146;48.128;11.476;2023-07-02T13:58:05;25.90;91.80
12166;DHT22;6146;48.128;11.476;2023-07-02T14:00:31;25.90;93.60
12166;DHT22;6146;48.128;11.476;2023-07-02T14:02:57;25.70;92.40
12166;DHT22;6146;48.128;11.476;2023-07-02T14:05:23;25.50;93.80
12166;DHT22;6146;48.128;11.476;2023-07-02T14:07:49;25.60;94.70
12166;DHT22;6146;48.128;11.476;2023-07-02T14:10:15;25.70;94.10
12166;DHT22;6146;48.128;11.476;2023-07-02T14:12:41;25.70;94.20
12166;DHT22;6146;48.128;11.476;2023-07-02T14:15:08;25.40;93.00
12166;DHT22;6146;48.128;11.476;2023-07-02T14:17:33;25.20;93.50
12166;DHT22;6146;48.128;11.476;2023-07-02T14:19:59;25.20;92.70
12166;DHT22;6146;48.128;11.476;2023-07-02T14:22:25;24.90;91.90
12166;DHT22;6146;48.128;11.476;2023-07-02T14:24:50;24.90;95.40
12166;DHT22;6146;48.128;11.476;2023-07-02T14:27:16;25.00;94.80
12166;DHT22;6146;48.128;11.476;2023-07-02T14:29:42;24.90;92.40
12166;DHT22;6146;48.128;11.476;2023-07-02T14:32:07;24.90;93.20
12166;DHT22;6146;48.128;11.476;2023-07-02T14:34:33;24.90;94.40
12166;DHT22;6146;48.128;11.476;2023-07-02T14:36:59;24.90;93.60
12166;DHT22;6146;48.128;11.476;2023-07-02T14:39:25;25.00;93.80
12166;DHT22;6146;48.128;11.476;2023-07-02T14:41:50;25.10;92.90
12166;DHT22;6146;48.128;11.476;2023-07-02T14:44:16;25.00;93.20
12166;DHT22;6146;48.128;11.476;2023-07-02T14:46:43;25.00;94.80
12166;DHT22;6146;48.128;11.476;2023-07-02T14:49:09;24.90;95.00
12166;DHT22;6146;48.128;11.476;2023-07-02T14:51:34;25.10;93.30
12166;DHT22;6146;48.128;11.476;2023-07-02T14:54:00;25.10;93.20
12166;DHT22;6146;48.128;11.476;2023-07-02T14:56:32;25.00;92.40
12166;DHT22;6146;48.128;11.476;2023-07-02T14:58:57;24.90;94.10
12166;DHT22;6146;48.128;11.476;2023-07-02T15:01:23;25.20;92.60
12166;DHT22;6146;48.128;11.476;2023-07-02T15:03:49;25.20;92.60
12166;DHT22;6146;48.128;11.476;2023-07-02T15:06:17;25.20;93.10
12166;DHT22;6146;48.128;11.476;2023-07-02T15:08:43;25.20;92.80
12166;DHT22;6146;48.128;11.476;2023-07-02T15:11:10;25.20;92.70
12166;DHT22;6146;48.128;11.476;2023-07-02T15:13:36;25.40;93.00
12166;DHT22;6146;48.128;11.476;2023-07-02T15:16:04;25.30;92.90
12166;DHT22;6146;48.128;11.476;2023-07-02T15:18:30;25.20;93.10
12166;DHT22;6146;48.128;11.476;2023-07-02T15:20:55;25.30;93.70
12166;DHT22;6146;48.128;11.476;2023-07-02T15:23:22;25.40;93.00
12166;DHT22;6146;48.128;11.476;2023-07-02T15:26:06;25.20;91.50